sensor_id;sensor_type;location;lat;lon;timestamp;P1;durP1;ratioP1;P2;durP2;ratioP2
13439;SDS011;6792;57.698;11.946;2024-03-02T00:02:28;40.33;;;21.00;;
13439;SDS011;6792;57.698;11.946;2024-03-02T00:05:02;39.47;;;19.73;;
13439;SDS011;6792;57.698;11.946;2024-03-02T00:07:36;39.97;;;19.30;;
13439;SDS011;6792;57.698;11.946;2024-03-02T00:10:13;39.30;;;18.83;;
13439;SDS011;6792;57.698;11.946;2024-03-02T00:12:49;40.83;;;20.73;;
13439;SDS011;6792;57.698;11.946;2024-03-02T00:15:39;40.20;;;20.40;;
13439;SDS011;6792;57.698;11.946;2024-03-02T00:18:18;39.80;;;19.83;;
13439;SDS011;6792;57.698;11.946;2024-03-02T00:20:53;40.07;;;19.10;;
13439;SDS011;6792;57.698;11.946;2024-03-02T00:23:31;41.67;;;20.53;;
13439;SDS011;6792;57.698;11.946;2024-03-02T00:26:03;34.67;;;19.50;;
13439;SDS011;6792;57.698;11.946;2024-03-02T00:29:06;43.80;;;19.23;;
13439;SDS011;6792;57.698;11.946;2024-03-02T00:31:41;39.93;;;19.97;;
13439;SDS011;6792;57.698;11.946;2024-03-02T00:34:13;38.10;;;19.57;;
13439;SDS011;6792;57.698;11.946;2024-03-02T00:36:54;37.87;;;19.23;;
13439;SDS011;6792;57.698;11.946;2024-03-02T00:39:30;40.20;;;19.63;;
13439;SDS011;6792;57.698;11.946;2024-03-02T00:42:01;38.13;;;19.67;;
13439;SDS011;6792;57.698;11.946;2024-03-02T00:44:43;41.37;;;20.43;;
13439;SDS011;6792;57.698;11.946;2024-03-02T00:47:22;39.20;;;19.80;;
13439;SDS011;6792;57.698;11.946;2024-03-02T00:49:55;37.17;;;19.40;;
13439;SDS011;6792;57.698;11.946;2024-03-02T00:52:34;39.87;;;20.10;;
13439;SDS011;6792;57.698;11.946;2024-03-02T00:55:13;40.30;;;19.83;;
13439;SDS011;6792;57.698;11.946;2024-03-02T00:57:43;37.73;;;19.67;;
13439;SDS011;6792;57.698;11.946;2024-03-02T01:00:15;41.53;;;19.67;;
13439;SDS011;6792;57.698;11.946;2024-03-02T01:02:46;40.10;;;19.40;;
13439;SDS011;6792;57.698;11.946;2024-03-02T01:05:17;39.80;;;20.07;;
13439;SDS011;6792;57.698;11.946;2024-03-02T01:07:49;39.93;;;18.50;;
13439;SDS011;6792;57.698;11.946;2024-03-02T01:10:19;38.03;;;19.87;;
13439;SDS011;6792;57.698;11.946;2024-03-02T01:12:49;43.13;;;20.03;;
13439;SDS011;6792;57.698;11.946;2024-03-02T01:15:20;40.03;;;19.97;;
13439;SDS011;6792;57.698;11.946;2024-03-02T01:17:54;41.27;;;19.93;;
13439;SDS011;6792;57.698;11.946;2024-03-02T01:20:34;40.93;;;20.37;;
13439;SDS011;6792;57.698;11.946;2024-03-02T01:23:04;39.93;;;19.23;;
13439;SDS011;6792;57.698;11.946;2024-03-02T01:25:33;40.40;;;19.27;;
13439;SDS011;6792;57.698;11.946;2024-03-02T01:28:03;39.60;;;19.27;;
13439;SDS011;6792;57.698;11.946;2024-03-02T01:30:33;35.90;;;18.50;;
13439;SDS011;6792;57.698;11.946;2024-03-02T01:33:03;39.07;;;18.43;;
13439;SDS011;6792;57.698;11.946;2024-03-02T01:35:33;40.17;;;19.47;;
13439;SDS011;6792;57.698;11.946;2024-03-02T01:38:02;38.60;;;18.33;;
13439;SDS011;6792;57.698;11.946;2024-03-02T01:40:35;43.23;;;19.23;;
13439;SDS011;6792;57.698;11.946;2024-03-02T01:43:05;36.77;;;18.27;;
13439;SDS011;6792;57.698;11.946;2024-03-02T01:45:35;37.10;;;18.83;;
13439;SDS011;6792;57.698;11.946;2024-03-02T01:48:06;39.90;;;18.60;;
13439;SDS011;6792;57.698;11.946;2024-03-02T01:50:36;36.83;;;18.70;;
13439;SDS011;6792;57.698;11.946;2024-03-02T01:53:06;38.83;;;18.50;;
13439;SDS011;6792;57.698;11.946;2024-03-02T01:55:37;37.57;;;18.90;;
13439;SDS011;6792;57.698;11.946;2024-03-02T01:58:07;41.93;;;20.30;;
13439;SDS011;6792;57.698;11.946;2024-03-02T02:00:43;41.03;;;19.87;;
13439;SDS011;6792;57.698;11.946;2024-03-02T02:03:14;36.73;;;17.93;;
13439;SDS011;6792;57.698;11.946;2024-03-02T02:05:44;34.33;;;17.97;;
13439;SDS011;6792;57.698;11.946;2024-03-02T02:08:20;35.37;;;18.10;;
13439;SDS011;6792;57.698;11.946;2024-03-02T02:10:54;36.23;;;18.70;;
13439;SDS011;6792;57.698;11.946;2024-03-02T02:13:25;32.33;;;17.87;;
13439;SDS011;6792;57.698;11.946;2024-03-02T02:16:05;34.63;;;18.60;;
13439;SDS011;6792;57.698;11.946;2024-03-02T02:21:12;39.63;;;19.27;;
13439;SDS011;6792;57.698;11.946;2024-03-02T02:23:42;39.33;;;18.63;;
13439;SDS011;6792;57.698;11.946;2024-03-02T02:26:13;38.83;;;18.00;;
13439;SDS011;6792;57.698;11.946;2024-03-02T02:28:42;33.53;;;18.37;;
13439;SDS011;6792;57.698;11.946;2024-03-02T02:31:14;39.60;;;17.97;;
13439;SDS011;6792;57.698;11.946;2024-03-02T02:33:43;38.10;;;19.20;;
13439;SDS011;6792;57.698;11.946;2024-03-02T02:36:13;34.70;;;17.03;;
13439;SDS011;6792;57.698;11.946;2024-03-02T02:38:44;37.30;;;19.27;;
13439;SDS011;6792;57.698;11.946;2024-03-02T02:41:16;36.53;;;17.30;;
13439;SDS011;6792;57.698;11.946;2024-03-02T02:43:45;42.43;;;19.57;;
13439;SDS011;6792;57.698;11.946;2024-03-02T02:46:15;36.83;;;17.93;;
13439;SDS011;6792;57.698;11.946;2024-03-02T02:48:45;38.90;;;18.53;;
13439;SDS011;6792;57.698;11.946;2024-03-02T02:51:14;37.27;;;18.87;;
13439;SDS011;6792;57.698;11.946;2024-03-02T02:53:44;31.30;;;17.07;;
13439;SDS011;6792;57.698;11.946;2024-03-02T02:56:14;36.90;;;17.83;;
13439;SDS011;6792;57.698;11.946;2024-03-02T02:58:43;33.20;;;16.30;;
13439;SDS011;6792;57.698;11.946;2024-03-02T03:01:15;33.83;;;17.20;;
13439;SDS011;6792;57.698;11.946;2024-03-02T03:03:45;38.37;;;18.37;;
13439;SDS011;6792;57.698;11.946;2024-03-02T03:06:19;33.57;;;17.57;;
13439;SDS011;6792;57.698;11.946;2024-03-02T03:08:48;30.70;;;17.23;;
13439;SDS011;6792;57.698;11.946;2024-03-02T03:11:19;38.53;;;18.13;;
13439;SDS011;6792;57.698;11.946;2024-03-02T03:13:49;34.47;;;17.23;;
13439;SDS011;6792;57.698;11.946;2024-03-02T03:16:19;31.53;;;16.73;;
13439;SDS011;6792;57.698;11.946;2024-03-02T03:18:49;35.63;;;16.93;;
13439;SDS011;6792;57.698;11.946;2024-03-02T03:21:19;33.17;;;16.63;;
13439;SDS011;6792;57.698;11.946;2024-03-02T03:23:49;36.77;;;17.87;;
13439;SDS011;6792;57.698;11.946;2024-03-02T03:26:19;35.37;;;18.20;;
13439;SDS011;6792;57.698;11.946;2024-03-02T03:28:48;32.10;;;17.93;;
13439;SDS011;6792;57.698;11.946;2024-03-02T03:33:54;37.87;;;17.97;;
13439;SDS011;6792;57.698;11.946;2024-03-02T03:36:24;37.97;;;17.37;;
13439;SDS011;6792;57.698;11.946;2024-03-02T03:38:53;35.90;;;17.23;;
13439;SDS011;6792;57.698;11.946;2024-03-02T03:41:32;35.67;;;17.07;;
13439;SDS011;6792;57.698;11.946;2024-03-02T03:44:01;35.90;;;17.20;;
13439;SDS011;6792;57.698;11.946;2024-03-02T03:46:45;40.20;;;17.33;;
13439;SDS011;6792;57.698;11.946;2024-03-02T03:49:27;34.27;;;17.90;;
13439;SDS011;6792;57.698;11.946;2024-03-02T03:52:08;39.27;;;18.07;;
13439;SDS011;6792;57.698;11.946;2024-03-02T03:57:49;34.87;;;17.37;;
13439;SDS011;6792;57.698;11.946;2024-03-02T04:00:22;33.53;;;16.80;;
13439;SDS011;6792;57.698;11.946;2024-03-02T04:02:58;31.77;;;16.50;;
13439;SDS011;6792;57.698;11.946;2024-03-02T04:05:29;31.07;;;17.33;;
13439;SDS011;6792;57.698;11.946;2024-03-02T04:07:59;33.00;;;17.30;;
13439;SDS011;6792;57.698;11.946;2024-03-02T04:10:28;31.23;;;17.17;;
13439;SDS011;6792;57.698;11.946;2024-03-02T04:12:59;32.50;;;16.27;;
13439;SDS011;6792;57.698;11.946;2024-03-02T04:15:29;36.83;;;17.50;;
13439;SDS011;6792;57.698;11.946;2024-03-02T04:17:58;32.33;;;16.20;;
13439;SDS011;6792;57.698;11.946;2024-03-02T04:20:28;35.00;;;17.80;;
13439;SDS011;6792;57.698;11.946;2024-03-02T04:22:58;32.37;;;16.33;;
13439;SDS011;6792;57.698;11.946;2024-03-02T04:25:28;32.43;;;15.60;;
13439;SDS011;6792;57.698;11.946;2024-03-02T04:28:00;33.83;;;16.43;;
13439;SDS011;6792;57.698;11.946;2024-03-02T04:30:30;31.10;;;16.83;;
13439;SDS011;6792;57.698;11.946;2024-03-02T04:33:07;34.97;;;17.40;;
13439;SDS011;6792;57.698;11.946;2024-03-02T04:38:33;32.70;;;15.80;;
13439;SDS011;6792;57.698;11.946;2024-03-02T04:43:55;30.13;;;16.33;;
13439;SDS011;6792;57.698;11.946;2024-03-02T04:46:35;30.90;;;15.57;;
13439;SDS011;6792;57.698;11.946;2024-03-02T04:49:15;33.40;;;16.30;;
13439;SDS011;6792;57.698;11.946;2024-03-02T04:51:53;32.13;;;16.17;;
13439;SDS011;6792;57.698;11.946;2024-03-02T04:54:22;33.27;;;16.57;;
13439;SDS011;6792;57.698;11.946;2024-03-02T04:56:55;29.33;;;15.87;;
13439;SDS011;6792;57.698;11.946;2024-03-02T04:59:25;32.37;;;15.57;;
13439;SDS011;6792;57.698;11.946;2024-03-02T05:01:57;30.17;;;15.70;;
13439;SDS011;6792;57.698;11.946;2024-03-02T05:04:28;32.37;;;15.20;;
13439;SDS011;6792;57.698;11.946;2024-03-02T05:06:57;30.87;;;15.40;;
13439;SDS011;6792;57.698;11.946;2024-03-02T05:09:27;27.43;;;15.00;;
13439;SDS011;6792;57.698;11.946;2024-03-02T05:11:57;31.10;;;16.10;;
13439;SDS011;6792;57.698;11.946;2024-03-02T05:14:52;31.47;;;16.03;;
13439;SDS011;6792;57.698;11.946;2024-03-02T05:17:28;28.70;;;14.47;;
13439;SDS011;6792;57.698;11.946;2024-03-02T05:19:57;27.57;;;14.93;;
13439;SDS011;6792;57.698;11.946;2024-03-02T05:22:27;29.23;;;14.80;;
13439;SDS011;6792;57.698;11.946;2024-03-02T05:25:02;29.23;;;15.20;;
13439;SDS011;6792;57.698;11.946;2024-03-02T05:27:36;28.13;;;15.10;;
13439;SDS011;6792;57.698;11.946;2024-03-02T05:30:24;28.63;;;14.47;;
13439;SDS011;6792;57.698;11.946;2024-03-02T05:32:53;29.30;;;14.37;;
13439;SDS011;6792;57.698;11.946;2024-03-02T05:35:30;30.93;;;15.10;;
13439;SDS011;6792;57.698;11.946;2024-03-02T05:38:17;28.17;;;15.03;;
13439;SDS011;6792;57.698;11.946;2024-03-02T05:40:48;30.13;;;15.20;;
13439;SDS011;6792;57.698;11.946;2024-03-02T05:43:17;29.17;;;14.97;;
13439;SDS011;6792;57.698;11.946;2024-03-02T05:45:47;30.73;;;14.87;;
13439;SDS011;6792;57.698;11.946;2024-03-02T05:48:16;31.77;;;15.73;;
13439;SDS011;6792;57.698;11.946;2024-03-02T05:50:46;26.33;;;14.67;;
13439;SDS011;6792;57.698;11.946;2024-03-02T05:53:15;29.33;;;14.80;;
13439;SDS011;6792;57.698;11.946;2024-03-02T05:55:44;26.93;;;14.87;;
13439;SDS011;6792;57.698;11.946;2024-03-02T05:58:25;26.47;;;14.53;;
13439;SDS011;6792;57.698;11.946;2024-03-02T06:01:07;29.70;;;15.47;;
13439;SDS011;6792;57.698;11.946;2024-03-02T06:03:38;34.47;;;15.33;;
13439;SDS011;6792;57.698;11.946;2024-03-02T06:06:13;25.70;;;14.10;;
13439;SDS011;6792;57.698;11.946;2024-03-02T06:08:53;28.50;;;15.17;;
13439;SDS011;6792;57.698;11.946;2024-03-02T06:11:36;31.03;;;15.23;;
13439;SDS011;6792;57.698;11.946;2024-03-02T06:14:07;27.63;;;15.33;;
13439;SDS011;6792;57.698;11.946;2024-03-02T06:16:37;29.43;;;16.17;;
13439;SDS011;6792;57.698;11.946;2024-03-02T06:19:07;27.27;;;14.60;;
13439;SDS011;6792;57.698;11.946;2024-03-02T06:21:36;26.17;;;14.73;;
13439;SDS011;6792;57.698;11.946;2024-03-02T06:24:06;33.57;;;15.67;;
13439;SDS011;6792;57.698;11.946;2024-03-02T06:26:35;33.87;;;15.70;;
13439;SDS011;6792;57.698;11.946;2024-03-02T06:29:05;32.50;;;16.10;;
13439;SDS011;6792;57.698;11.946;2024-03-02T06:31:34;29.33;;;15.10;;
13439;SDS011;6792;57.698;11.946;2024-03-02T06:34:13;31.63;;;16.03;;
13439;SDS011;6792;57.698;11.946;2024-03-02T06:36:51;31.80;;;15.57;;
13439;SDS011;6792;57.698;11.946;2024-03-02T06:39:25;32.93;;;16.43;;
13439;SDS011;6792;57.698;11.946;2024-03-02T06:41:54;33.30;;;17.00;;
13439;SDS011;6792;57.698;11.946;2024-03-02T06:44:25;35.77;;;16.53;;
13439;SDS011;6792;57.698;11.946;2024-03-02T06:47:06;36.10;;;16.77;;
13439;SDS011;6792;57.698;11.946;2024-03-02T06:49:36;33.33;;;16.97;;
13439;SDS011;6792;57.698;11.946;2024-03-02T06:52:05;36.60;;;17.33;;
13439;SDS011;6792;57.698;11.946;2024-03-02T07:00:24;33.63;;;17.43;;
13439;SDS011;6792;57.698;11.946;2024-03-02T07:02:58;38.47;;;17.60;;
13439;SDS011;6792;57.698;11.946;2024-03-02T07:05:27;34.23;;;16.97;;
13439;SDS011;6792;57.698;11.946;2024-03-02T07:07:57;35.50;;;16.27;;
13439;SDS011;6792;57.698;11.946;2024-03-02T07:10:27;35.20;;;16.60;;
13439;SDS011;6792;57.698;11.946;2024-03-02T07:12:56;36.67;;;17.10;;
13439;SDS011;6792;57.698;11.946;2024-03-02T07:15:26;33.67;;;17.33;;
13439;SDS011;6792;57.698;11.946;2024-03-02T07:18:09;32.33;;;17.27;;
13439;SDS011;6792;57.698;11.946;2024-03-02T07:20:40;36.00;;;17.80;;
13439;SDS011;6792;57.698;11.946;2024-03-02T07:23:21;31.77;;;17.80;;
13439;SDS011;6792;57.698;11.946;2024-03-02T07:25:55;36.30;;;18.50;;
13439;SDS011;6792;57.698;11.946;2024-03-02T07:28:23;34.27;;;16.60;;
13439;SDS011;6792;57.698;11.946;2024-03-02T07:30:58;33.90;;;15.53;;
13439;SDS011;6792;57.698;11.946;2024-03-02T07:33:27;36.20;;;17.37;;
13439;SDS011;6792;57.698;11.946;2024-03-02T07:35:57;32.90;;;16.23;;
13439;SDS011;6792;57.698;11.946;2024-03-02T07:38:28;29.47;;;15.93;;
13439;SDS011;6792;57.698;11.946;2024-03-02T07:41:00;36.20;;;16.23;;
13439;SDS011;6792;57.698;11.946;2024-03-02T07:43:31;28.70;;;15.87;;
13439;SDS011;6792;57.698;11.946;2024-03-02T07:46:01;29.60;;;15.07;;
13439;SDS011;6792;57.698;11.946;2024-03-02T07:48:32;32.73;;;16.50;;
13439;SDS011;6792;57.698;11.946;2024-03-02T07:51:01;32.57;;;16.83;;
13439;SDS011;6792;57.698;11.946;2024-03-02T07:53:31;35.73;;;16.73;;
13439;SDS011;6792;57.698;11.946;2024-03-02T07:56:01;30.87;;;16.53;;
13439;SDS011;6792;57.698;11.946;2024-03-02T07:58:32;33.77;;;16.43;;
13439;SDS011;6792;57.698;11.946;2024-03-02T08:01:04;31.57;;;16.87;;
13439;SDS011;6792;57.698;11.946;2024-03-02T08:03:35;33.47;;;16.27;;
13439;SDS011;6792;57.698;11.946;2024-03-02T08:06:07;32.37;;;17.43;;
13439;SDS011;6792;57.698;11.946;2024-03-02T08:08:39;31.40;;;16.50;;
13439;SDS011;6792;57.698;11.946;2024-03-02T08:11:12;32.43;;;16.67;;
13439;SDS011;6792;57.698;11.946;2024-03-02T08:13:42;34.63;;;16.60;;
13439;SDS011;6792;57.698;11.946;2024-03-02T08:19:04;33.00;;;16.10;;
13439;SDS011;6792;57.698;11.946;2024-03-02T08:21:42;34.07;;;16.50;;
13439;SDS011;6792;57.698;11.946;2024-03-02T08:24:14;33.20;;;17.30;;
13439;SDS011;6792;57.698;11.946;2024-03-02T08:26:47;36.83;;;18.10;;
13439;SDS011;6792;57.698;11.946;2024-03-02T08:29:18;32.17;;;17.63;;
13439;SDS011;6792;57.698;11.946;2024-03-02T08:31:51;34.60;;;18.07;;
13439;SDS011;6792;57.698;11.946;2024-03-02T08:34:20;32.90;;;17.47;;
13439;SDS011;6792;57.698;11.946;2024-03-02T08:36:59;34.00;;;17.43;;
13439;SDS011;6792;57.698;11.946;2024-03-02T08:39:28;31.80;;;16.90;;
13439;SDS011;6792;57.698;11.946;2024-03-02T08:41:59;32.37;;;17.07;;
13439;SDS011;6792;57.698;11.946;2024-03-02T08:44:32;30.47;;;17.20;;
13439;SDS011;6792;57.698;11.946;2024-03-02T08:47:02;32.27;;;17.80;;
13439;SDS011;6792;57.698;11.946;2024-03-02T08:49:31;34.27;;;18.23;;
13439;SDS011;6792;57.698;11.946;2024-03-02T08:52:01;31.07;;;17.70;;
13439;SDS011;6792;57.698;11.946;2024-03-02T08:54:31;32.53;;;17.80;;
13439;SDS011;6792;57.698;11.946;2024-03-02T08:57:02;30.80;;;16.90;;
13439;SDS011;6792;57.698;11.946;2024-03-02T08:59:33;38.90;;;19.20;;
13439;SDS011;6792;57.698;11.946;2024-03-02T09:02:03;34.07;;;17.90;;
13439;SDS011;6792;57.698;11.946;2024-03-02T09:04:33;38.37;;;18.37;;
13439;SDS011;6792;57.698;11.946;2024-03-02T09:07:02;33.23;;;18.67;;
13439;SDS011;6792;57.698;11.946;2024-03-02T09:09:33;37.07;;;18.67;;
13439;SDS011;6792;57.698;11.946;2024-03-02T09:12:07;34.13;;;19.37;;
13439;SDS011;6792;57.698;11.946;2024-03-02T09:14:43;37.97;;;20.00;;
13439;SDS011;6792;57.698;11.946;2024-03-02T09:17:14;37.43;;;19.03;;
13439;SDS011;6792;57.698;11.946;2024-03-02T09:19:47;37.97;;;19.63;;
13439;SDS011;6792;57.698;11.946;2024-03-02T09:22:19;34.10;;;18.60;;
13439;SDS011;6792;57.698;11.946;2024-03-02T09:24:51;40.60;;;19.50;;
13439;SDS011;6792;57.698;11.946;2024-03-02T09:27:22;39.30;;;19.80;;
13439;SDS011;6792;57.698;11.946;2024-03-02T09:29:51;36.03;;;19.20;;
13439;SDS011;6792;57.698;11.946;2024-03-02T09:32:20;36.93;;;20.03;;
13439;SDS011;6792;57.698;11.946;2024-03-02T09:34:51;40.40;;;20.93;;
13439;SDS011;6792;57.698;11.946;2024-03-02T09:37:22;41.23;;;21.13;;
13439;SDS011;6792;57.698;11.946;2024-03-02T09:39:51;39.90;;;22.10;;
13439;SDS011;6792;57.698;11.946;2024-03-02T09:42:20;35.57;;;20.33;;
13439;SDS011;6792;57.698;11.946;2024-03-02T09:44:50;38.10;;;21.17;;
13439;SDS011;6792;57.698;11.946;2024-03-02T09:47:20;41.03;;;21.13;;
13439;SDS011;6792;57.698;11.946;2024-03-02T09:49:49;40.53;;;21.33;;
13439;SDS011;6792;57.698;11.946;2024-03-02T09:52:28;43.43;;;23.30;;
13439;SDS011;6792;57.698;11.946;2024-03-02T09:54:58;43.53;;;22.27;;
13439;SDS011;6792;57.698;11.946;2024-03-02T09:57:27;42.00;;;21.90;;
13439;SDS011;6792;57.698;11.946;2024-03-02T09:59:57;45.63;;;23.63;;
13439;SDS011;6792;57.698;11.946;2024-03-02T10:02:28;41.53;;;23.27;;
13439;SDS011;6792;57.698;11.946;2024-03-02T10:04:58;42.00;;;22.53;;
13439;SDS011;6792;57.698;11.946;2024-03-02T10:07:30;43.60;;;23.83;;
13439;SDS011;6792;57.698;11.946;2024-03-02T10:10:12;45.80;;;24.17;;
13439;SDS011;6792;57.698;11.946;2024-03-02T10:12:43;43.30;;;22.97;;
13439;SDS011;6792;57.698;11.946;2024-03-02T10:15:13;41.07;;;22.33;;
13439;SDS011;6792;57.698;11.946;2024-03-02T10:17:44;39.03;;;23.03;;
13439;SDS011;6792;57.698;11.946;2024-03-02T10:20:23;42.20;;;23.10;;
13439;SDS011;6792;57.698;11.946;2024-03-02T10:23:13;39.20;;;22.00;;
13439;SDS011;6792;57.698;11.946;2024-03-02T10:25:44;43.77;;;23.43;;
13439;SDS011;6792;57.698;11.946;2024-03-02T10:28:13;41.10;;;22.03;;
13439;SDS011;6792;57.698;11.946;2024-03-02T10:30:48;42.40;;;23.53;;
13439;SDS011;6792;57.698;11.946;2024-03-02T10:33:31;39.63;;;23.13;;
13439;SDS011;6792;57.698;11.946;2024-03-02T10:36:07;42.03;;;22.77;;
13439;SDS011;6792;57.698;11.946;2024-03-02T10:38:47;41.00;;;23.13;;
13439;SDS011;6792;57.698;11.946;2024-03-02T10:41:32;40.13;;;22.07;;
13439;SDS011;6792;57.698;11.946;2024-03-02T10:44:03;39.57;;;23.10;;
13439;SDS011;6792;57.698;11.946;2024-03-02T10:46:40;39.90;;;22.40;;
13439;SDS011;6792;57.698;11.946;2024-03-02T10:49:24;39.63;;;22.30;;
13439;SDS011;6792;57.698;11.946;2024-03-02T10:51:59;38.40;;;21.47;;
13439;SDS011;6792;57.698;11.946;2024-03-02T10:54:39;37.87;;;21.87;;
13439;SDS011;6792;57.698;11.946;2024-03-02T10:57:13;39.10;;;21.90;;
13439;SDS011;6792;57.698;11.946;2024-03-02T10:59:48;36.03;;;20.70;;
13439;SDS011;6792;57.698;11.946;2024-03-02T11:02:17;35.37;;;20.83;;
13439;SDS011;6792;57.698;11.946;2024-03-02T11:04:49;36.20;;;21.13;;
13439;SDS011;6792;57.698;11.946;2024-03-02T11:07:27;35.80;;;22.10;;
13439;SDS011;6792;57.698;11.946;2024-03-02T11:10:01;33.60;;;20.30;;
13439;SDS011;6792;57.698;11.946;2024-03-02T11:12:43;39.20;;;21.25;;
13439;SDS011;6792;57.698;11.946;2024-03-02T11:18:09;30.40;;;19.20;;
13439;SDS011;6792;57.698;11.946;2024-03-02T11:20:46;32.08;;;19.37;;
13439;SDS011;6792;57.698;11.946;2024-03-02T11:23:22;32.63;;;19.40;;
13439;SDS011;6792;57.698;11.946;2024-03-02T11:26:28;29.10;;;18.70;;
13439;SDS011;6792;57.698;11.946;2024-03-02T11:29:01;29.30;;;18.02;;
13439;SDS011;6792;57.698;11.946;2024-03-02T11:34:43;29.23;;;17.27;;
13439;SDS011;6792;57.698;11.946;2024-03-02T11:37:18;29.02;;;16.75;;
13439;SDS011;6792;57.698;11.946;2024-03-02T11:39:50;28.47;;;16.93;;
13439;SDS011;6792;57.698;11.946;2024-03-02T11:42:23;23.85;;;15.58;;
13439;SDS011;6792;57.698;11.946;2024-03-02T11:44:54;26.83;;;16.37;;
13439;SDS011;6792;57.698;11.946;2024-03-02T11:47:25;26.77;;;15.55;;
13439;SDS011;6792;57.698;11.946;2024-03-02T11:49:58;25.80;;;16.02;;
13439;SDS011;6792;57.698;11.946;2024-03-02T11:52:38;24.30;;;14.95;;
13439;SDS011;6792;57.698;11.946;2024-03-02T11:55:14;20.90;;;13.98;;
13439;SDS011;6792;57.698;11.946;2024-03-02T11:57:45;21.00;;;13.67;;
13439;SDS011;6792;57.698;11.946;2024-03-02T12:00:17;21.60;;;13.33;;
13439;SDS011;6792;57.698;11.946;2024-03-02T12:02:48;22.30;;;14.27;;
13439;SDS011;6792;57.698;11.946;2024-03-02T12:05:26;19.57;;;13.13;;
13439;SDS011;6792;57.698;11.946;2024-03-02T12:07:56;20.27;;;13.48;;
13439;SDS011;6792;57.698;11.946;2024-03-02T12:10:26;17.07;;;12.60;;
13439;SDS011;6792;57.698;11.946;2024-03-02T12:12:57;21.27;;;12.27;;
13439;SDS011;6792;57.698;11.946;2024-03-02T12:15:27;18.73;;;13.23;;
13439;SDS011;6792;57.698;11.946;2024-03-02T12:17:57;19.00;;;12.97;;
13439;SDS011;6792;57.698;11.946;2024-03-02T12:20:29;19.43;;;12.33;;
13439;SDS011;6792;57.698;11.946;2024-03-02T12:26:01;15.68;;;11.57;;
13439;SDS011;6792;57.698;11.946;2024-03-02T12:28:33;15.87;;;11.40;;
13439;SDS011;6792;57.698;11.946;2024-03-02T12:31:06;13.48;;;10.20;;
13439;SDS011;6792;57.698;11.946;2024-03-02T12:33:46;16.20;;;11.57;;
13439;SDS011;6792;57.698;11.946;2024-03-02T12:36:19;15.17;;;10.57;;
13439;SDS011;6792;57.698;11.946;2024-03-02T12:38:53;13.97;;;10.43;;
13439;SDS011;6792;57.698;11.946;2024-03-02T12:41:29;15.67;;;10.10;;
13439;SDS011;6792;57.698;11.946;2024-03-02T12:44:02;14.20;;;10.18;;
13439;SDS011;6792;57.698;11.946;2024-03-02T12:46:32;14.20;;;9.65;;
13439;SDS011;6792;57.698;11.946;2024-03-02T12:49:09;13.78;;;9.63;;
13439;SDS011;6792;57.698;11.946;2024-03-02T12:51:43;11.75;;;9.38;;
13439;SDS011;6792;57.698;11.946;2024-03-02T12:54:16;10.27;;;8.57;;
13439;SDS011;6792;57.698;11.946;2024-03-02T12:56:51;11.85;;;8.68;;
13439;SDS011;6792;57.698;11.946;2024-03-02T12:59:24;10.50;;;8.35;;
13439;SDS011;6792;57.698;11.946;2024-03-02T13:01:54;11.30;;;8.47;;
13439;SDS011;6792;57.698;11.946;2024-03-02T13:04:25;10.03;;;8.17;;
13439;SDS011;6792;57.698;11.946;2024-03-02T13:06:57;10.23;;;8.20;;
13439;SDS011;6792;57.698;11.946;2024-03-02T13:09:34;10.20;;;8.10;;
13439;SDS011;6792;57.698;11.946;2024-03-02T13:12:07;11.47;;;8.87;;
13439;SDS011;6792;57.698;11.946;2024-03-02T13:14:41;12.35;;;7.58;;
13439;SDS011;6792;57.698;11.946;2024-03-02T13:17:23;9.47;;;7.60;;
13439;SDS011;6792;57.698;11.946;2024-03-02T13:20:00;8.37;;;7.33;;
13439;SDS011;6792;57.698;11.946;2024-03-02T13:22:40;9.63;;;7.00;;
13439;SDS011;6792;57.698;11.946;2024-03-02T13:25:10;9.23;;;7.37;;
13439;SDS011;6792;57.698;11.946;2024-03-02T13:27:39;8.27;;;6.83;;
13439;SDS011;6792;57.698;11.946;2024-03-02T13:30:09;8.23;;;7.07;;
13439;SDS011;6792;57.698;11.946;2024-03-02T13:32:39;7.73;;;6.43;;
13439;SDS011;6792;57.698;11.946;2024-03-02T13:35:08;7.50;;;6.37;;
13439;SDS011;6792;57.698;11.946;2024-03-02T13:37:37;6.83;;;5.87;;
13439;SDS011;6792;57.698;11.946;2024-03-02T13:40:08;8.40;;;6.70;;
13439;SDS011;6792;57.698;11.946;2024-03-02T13:42:39;8.93;;;6.45;;
13439;SDS011;6792;57.698;11.946;2024-03-02T13:45:09;9.10;;;6.40;;
13439;SDS011;6792;57.698;11.946;2024-03-02T13:47:40;7.33;;;6.15;;
13439;SDS011;6792;57.698;11.946;2024-03-02T13:50:10;7.30;;;6.05;;
13439;SDS011;6792;57.698;11.946;2024-03-02T13:52:39;6.60;;;5.90;;
13439;SDS011;6792;57.698;11.946;2024-03-02T13:55:08;7.30;;;6.05;;
13439;SDS011;6792;57.698;11.946;2024-03-02T13:57:37;6.00;;;5.40;;
13439;SDS011;6792;57.698;11.946;2024-03-02T14:00:08;6.22;;;5.62;;
13439;SDS011;6792;57.698;11.946;2024-03-02T14:02:38;7.12;;;5.35;;
13439;SDS011;6792;57.698;11.946;2024-03-02T14:05:07;6.63;;;5.20;;
13439;SDS011;6792;57.698;11.946;2024-03-02T14:07:38;6.03;;;5.43;;
13439;SDS011;6792;57.698;11.946;2024-03-02T14:10:10;6.58;;;5.22;;
13439;SDS011;6792;57.698;11.946;2024-03-02T14:12:42;5.47;;;4.97;;
13439;SDS011;6792;57.698;11.946;2024-03-02T14:15:13;5.93;;;4.87;;
13439;SDS011;6792;57.698;11.946;2024-03-02T14:17:42;6.03;;;5.40;;
13439;SDS011;6792;57.698;11.946;2024-03-02T14:20:11;6.43;;;5.37;;
13439;SDS011;6792;57.698;11.946;2024-03-02T14:22:41;6.20;;;4.90;;
13439;SDS011;6792;57.698;11.946;2024-03-02T14:25:10;5.03;;;4.62;;
13439;SDS011;6792;57.698;11.946;2024-03-02T14:27:40;6.70;;;4.97;;
13439;SDS011;6792;57.698;11.946;2024-03-02T14:30:10;5.28;;;4.45;;
13439;SDS011;6792;57.698;11.946;2024-03-02T14:32:41;4.97;;;4.47;;
13439;SDS011;6792;57.698;11.946;2024-03-02T14:35:11;5.50;;;4.87;;
13439;SDS011;6792;57.698;11.946;2024-03-02T14:40:17;5.67;;;4.90;;
13439;SDS011;6792;57.698;11.946;2024-03-02T14:42:48;5.15;;;4.62;;
13439;SDS011;6792;57.698;11.946;2024-03-02T14:45:17;6.90;;;5.08;;
13439;SDS011;6792;57.698;11.946;2024-03-02T14:47:47;5.90;;;4.95;;
13439;SDS011;6792;57.698;11.946;2024-03-02T14:50:26;6.05;;;5.33;;
13439;SDS011;6792;57.698;11.946;2024-03-02T14:52:58;6.03;;;4.70;;
13439;SDS011;6792;57.698;11.946;2024-03-02T14:55:28;5.27;;;4.77;;
13439;SDS011;6792;57.698;11.946;2024-03-02T14:57:58;6.15;;;4.42;;
13439;SDS011;6792;57.698;11.946;2024-03-02T15:00:28;5.00;;;4.50;;
13439;SDS011;6792;57.698;11.946;2024-03-02T15:02:58;6.03;;;5.20;;
13439;SDS011;6792;57.698;11.946;2024-03-02T15:05:28;5.75;;;4.72;;
13439;SDS011;6792;57.698;11.946;2024-03-02T15:07:57;5.72;;;4.83;;
13439;SDS011;6792;57.698;11.946;2024-03-02T15:10:28;9.73;;;5.33;;
13439;SDS011;6792;57.698;11.946;2024-03-02T15:12:58;6.55;;;4.45;;
13439;SDS011;6792;57.698;11.946;2024-03-02T15:15:31;6.15;;;4.80;;
13439;SDS011;6792;57.698;11.946;2024-03-02T15:18:02;6.20;;;4.65;;
13439;SDS011;6792;57.698;11.946;2024-03-02T15:20:35;6.12;;;5.05;;
13439;SDS011;6792;57.698;11.946;2024-03-02T15:23:03;5.87;;;4.67;;
13439;SDS011;6792;57.698;11.946;2024-03-02T15:25:33;6.33;;;5.30;;
13439;SDS011;6792;57.698;11.946;2024-03-02T15:28:05;6.08;;;5.22;;
13439;SDS011;6792;57.698;11.946;2024-03-02T15:30:35;6.05;;;5.03;;
13439;SDS011;6792;57.698;11.946;2024-03-02T15:33:04;7.00;;;5.60;;